メインページ
METAR-TAF:

METAR-TAF

空港 :

アントファガスタ, チリ

セロ・モレノ国際空港

緯度: 23-26S, 経度: 070-26W, 海抜: 135m

現時点の気象観測

当レポートは29分前の17:00(UTC)に作成
南/南西の風 9kt
気温 16°C
湿度 68%
気圧 1015 hPa
視程10km以上
1,500メートル以下は雲なし、積乱雲なし

METAR: SCFA 231700Z 20009KT CAVOK 16/10 Q1015 NOSIG

時間: 14:29 (17:29 UTC)

予報

当レポートは6時間8分前の11:21(UTC)に作成
予報は23日の 12時(UTC)から 24日の 12時(UTC)まで有効
南/南東の風 4kt
視程10km以上
高度2500ftの雲はほとんどない
24日の 00時(UTC)から 24日の 02時(UTC)まで徐々に
高度2300ftの千切れ雲あり
24日の 10時(UTC)から 24日の 12時(UTC)まで徐々に
西/南西の風 4kt

TAF: SCFA 231121Z 2312/2412 16004KT 9999 FEW025 TX19/2318Z TN15/2406Z BECMG 2400/2402 BKN023 BECMG 2410/2412 25004KT

4,000以上の空港の気象観測と天気予報(METAR報とTAF報)

利用可能な観測所は地図上に黄色い丸と赤い丸で示す。

丸の上にカーソルを重ねると観測所名を参照できる。

次にクリックすると気象観測と天気予報を参照できる。

マップの切り替え:黒色「×」印の緑ボタンをクリックして拡大、「-」印の緑ボタンをクリックして縮小、緑色の三角印をクリックして隣りの地図に切り替え


METAR-TAF: